sensor_id;sensor_type;location;lat;lon;timestamp;P1;durP1;ratioP1;P2;durP2;ratioP2
35715;SDS011;21840;44.920;8.616;2023-07-28T00:01:59;12.13;;;2.95;;
35715;SDS011;21840;44.920;8.616;2023-07-28T00:04:24;11.98;;;2.97;;
35715;SDS011;21840;44.920;8.616;2023-07-28T00:06:50;9.35;;;2.75;;
35715;SDS011;21840;44.920;8.616;2023-07-28T00:09:15;9.20;;;2.85;;
35715;SDS011;21840;44.920;8.616;2023-07-28T00:11:41;8.10;;;2.80;;
35715;SDS011;21840;44.920;8.616;2023-07-28T00:14:06;9.35;;;3.30;;
35715;SDS011;21840;44.920;8.616;2023-07-28T00:16:32;6.63;;;3.08;;
35715;SDS011;21840;44.920;8.616;2023-07-28T00:18:57;8.90;;;3.08;;
35715;SDS011;21840;44.920;8.616;2023-07-28T00:21:22;9.13;;;3.25;;
35715;SDS011;21840;44.920;8.616;2023-07-28T00:23:48;8.57;;;2.67;;
35715;SDS011;21840;44.920;8.616;2023-07-28T00:26:13;11.88;;;2.63;;
35715;SDS011;21840;44.920;8.616;2023-07-28T00:28:39;9.18;;;2.42;;
35715;SDS011;21840;44.920;8.616;2023-07-28T00:31:04;10.60;;;3.25;;
35715;SDS011;21840;44.920;8.616;2023-07-28T00:33:29;9.02;;;2.60;;
35715;SDS011;21840;44.920;8.616;2023-07-28T00:35:55;5.20;;;2.20;;
35715;SDS011;21840;44.920;8.616;2023-07-28T00:38:21;5.57;;;2.40;;
35715;SDS011;21840;44.920;8.616;2023-07-28T00:40:46;9.70;;;2.97;;
35715;SDS011;21840;44.920;8.616;2023-07-28T00:43:12;8.75;;;2.75;;
35715;SDS011;21840;44.920;8.616;2023-07-28T00:45:37;6.78;;;2.40;;
35715;SDS011;21840;44.920;8.616;2023-07-28T00:48:04;8.75;;;3.13;;
35715;SDS011;21840;44.920;8.616;2023-07-28T00:50:37;9.98;;;2.85;;
35715;SDS011;21840;44.920;8.616;2023-07-28T00:53:03;9.40;;;2.60;;
35715;SDS011;21840;44.920;8.616;2023-07-28T00:55:29;11.02;;;2.85;;
35715;SDS011;21840;44.920;8.616;2023-07-28T00:57:54;8.35;;;2.58;;
35715;SDS011;21840;44.920;8.616;2023-07-28T01:00:20;6.57;;;2.38;;
35715;SDS011;21840;44.920;8.616;2023-07-28T01:02:48;11.70;;;2.38;;
35715;SDS011;21840;44.920;8.616;2023-07-28T01:05:14;6.55;;;2.38;;
35715;SDS011;21840;44.920;8.616;2023-07-28T01:07:59;10.68;;;2.47;;
35715;SDS011;21840;44.920;8.616;2023-07-28T01:10:31;7.57;;;2.58;;
35715;SDS011;21840;44.920;8.616;2023-07-28T01:12:58;8.38;;;2.35;;
35715;SDS011;21840;44.920;8.616;2023-07-28T01:15:24;9.70;;;2.40;;
35715;SDS011;21840;44.920;8.616;2023-07-28T01:17:50;9.57;;;2.88;;
35715;SDS011;21840;44.920;8.616;2023-07-28T01:20:16;7.13;;;2.80;;
35715;SDS011;21840;44.920;8.616;2023-07-28T01:27:58;9.98;;;2.60;;
35715;SDS011;21840;44.920;8.616;2023-07-28T01:30:25;8.65;;;2.88;;
35715;SDS011;21840;44.920;8.616;2023-07-28T01:32:55;7.78;;;1.95;;
35715;SDS011;21840;44.920;8.616;2023-07-28T01:35:21;7.13;;;2.65;;
35715;SDS011;21840;44.920;8.616;2023-07-28T01:37:47;9.98;;;2.35;;
35715;SDS011;21840;44.920;8.616;2023-07-28T01:40:19;5.72;;;2.33;;
35715;SDS011;21840;44.920;8.616;2023-07-28T01:42:45;7.82;;;2.40;;
35715;SDS011;21840;44.920;8.616;2023-07-28T01:45:10;7.63;;;2.55;;
35715;SDS011;21840;44.920;8.616;2023-07-28T01:47:36;6.45;;;2.60;;
35715;SDS011;21840;44.920;8.616;2023-07-28T01:50:01;6.70;;;2.50;;
35715;SDS011;21840;44.920;8.616;2023-07-28T01:52:27;9.10;;;3.38;;
35715;SDS011;21840;44.920;8.616;2023-07-28T01:54:53;9.68;;;2.35;;
35715;SDS011;21840;44.920;8.616;2023-07-28T01:57:18;7.10;;;2.28;;
35715;SDS011;21840;44.920;8.616;2023-07-28T01:59:44;7.97;;;2.72;;
35715;SDS011;21840;44.920;8.616;2023-07-28T02:02:09;8.05;;;2.42;;
35715;SDS011;21840;44.920;8.616;2023-07-28T02:04:35;6.07;;;2.80;;
35715;SDS011;21840;44.920;8.616;2023-07-28T02:07:00;7.13;;;3.10;;
35715;SDS011;21840;44.920;8.616;2023-07-28T02:09:26;10.40;;;3.30;;
35715;SDS011;21840;44.920;8.616;2023-07-28T02:11:54;9.20;;;3.17;;
35715;SDS011;21840;44.920;8.616;2023-07-28T02:14:20;7.43;;;3.10;;
35715;SDS011;21840;44.920;8.616;2023-07-28T02:16:45;7.20;;;2.65;;
35715;SDS011;21840;44.920;8.616;2023-07-28T02:19:11;8.52;;;2.90;;
35715;SDS011;21840;44.920;8.616;2023-07-28T02:21:36;5.05;;;2.58;;
35715;SDS011;21840;44.920;8.616;2023-07-28T02:24:04;8.38;;;2.92;;
35715;SDS011;21840;44.920;8.616;2023-07-28T02:26:30;5.65;;;2.75;;
35715;SDS011;21840;44.920;8.616;2023-07-28T02:28:55;8.43;;;2.78;;
35715;SDS011;21840;44.920;8.616;2023-07-28T02:31:21;10.35;;;3.28;;
35715;SDS011;21840;44.920;8.616;2023-07-28T02:33:46;11.98;;;3.28;;
35715;SDS011;21840;44.920;8.616;2023-07-28T02:36:12;5.47;;;2.55;;
35715;SDS011;21840;44.920;8.616;2023-07-28T02:38:37;9.90;;;3.13;;
35715;SDS011;21840;44.920;8.616;2023-07-28T02:41:03;7.60;;;3.15;;
35715;SDS011;21840;44.920;8.616;2023-07-28T02:43:29;11.27;;;3.35;;
35715;SDS011;21840;44.920;8.616;2023-07-28T02:45:55;7.68;;;3.47;;
35715;SDS011;21840;44.920;8.616;2023-07-28T02:48:22;6.43;;;2.97;;
35715;SDS011;21840;44.920;8.616;2023-07-28T02:50:48;6.97;;;2.95;;
35715;SDS011;21840;44.920;8.616;2023-07-28T02:53:16;12.60;;;3.42;;
35715;SDS011;21840;44.920;8.616;2023-07-28T02:55:43;5.90;;;2.65;;
35715;SDS011;21840;44.920;8.616;2023-07-28T02:58:09;14.02;;;3.72;;
35715;SDS011;21840;44.920;8.616;2023-07-28T03:00:43;13.30;;;3.70;;
35715;SDS011;21840;44.920;8.616;2023-07-28T03:03:14;9.55;;;3.45;;
35715;SDS011;21840;44.920;8.616;2023-07-28T03:05:41;10.00;;;3.78;;
35715;SDS011;21840;44.920;8.616;2023-07-28T03:08:20;10.05;;;3.65;;
35715;SDS011;21840;44.920;8.616;2023-07-28T03:10:46;12.75;;;3.28;;
35715;SDS011;21840;44.920;8.616;2023-07-28T03:13:11;8.43;;;3.50;;
35715;SDS011;21840;44.920;8.616;2023-07-28T03:15:37;11.43;;;2.90;;
35715;SDS011;21840;44.920;8.616;2023-07-28T03:18:03;9.13;;;3.25;;
35715;SDS011;21840;44.920;8.616;2023-07-28T03:20:28;6.47;;;2.83;;
35715;SDS011;21840;44.920;8.616;2023-07-28T03:22:54;8.15;;;3.70;;
35715;SDS011;21840;44.920;8.616;2023-07-28T03:25:20;15.98;;;3.67;;
35715;SDS011;21840;44.920;8.616;2023-07-28T03:27:45;9.63;;;3.45;;
35715;SDS011;21840;44.920;8.616;2023-07-28T03:30:11;10.40;;;3.67;;
35715;SDS011;21840;44.920;8.616;2023-07-28T03:32:36;8.77;;;2.97;;
35715;SDS011;21840;44.920;8.616;2023-07-28T03:35:02;9.05;;;3.08;;
35715;SDS011;21840;44.920;8.616;2023-07-28T03:37:31;11.73;;;3.58;;
35715;SDS011;21840;44.920;8.616;2023-07-28T03:39:58;11.63;;;3.42;;
35715;SDS011;21840;44.920;8.616;2023-07-28T03:42:32;8.85;;;3.55;;
35715;SDS011;21840;44.920;8.616;2023-07-28T03:44:57;7.65;;;3.13;;
35715;SDS011;21840;44.920;8.616;2023-07-28T03:47:23;10.98;;;3.10;;
35715;SDS011;21840;44.920;8.616;2023-07-28T03:49:49;16.77;;;3.30;;
35715;SDS011;21840;44.920;8.616;2023-07-28T03:52:14;5.95;;;2.78;;
35715;SDS011;21840;44.920;8.616;2023-07-28T03:54:40;10.88;;;3.70;;
35715;SDS011;21840;44.920;8.616;2023-07-28T03:57:05;7.30;;;3.35;;
35715;SDS011;21840;44.920;8.616;2023-07-28T03:59:31;12.15;;;3.50;;
35715;SDS011;21840;44.920;8.616;2023-07-28T04:01:56;13.40;;;3.50;;
35715;SDS011;21840;44.920;8.616;2023-07-28T04:04:22;13.80;;;3.05;;
35715;SDS011;21840;44.920;8.616;2023-07-28T04:06:48;11.55;;;2.85;;
35715;SDS011;21840;44.920;8.616;2023-07-28T04:09:16;7.95;;;3.05;;
35715;SDS011;21840;44.920;8.616;2023-07-28T04:11:42;12.13;;;3.75;;
35715;SDS011;21840;44.920;8.616;2023-07-28T04:14:08;7.25;;;3.33;;
35715;SDS011;21840;44.920;8.616;2023-07-28T04:16:35;9.25;;;2.78;;
35715;SDS011;21840;44.920;8.616;2023-07-28T04:19:00;30.80;;;5.05;;
35715;SDS011;21840;44.920;8.616;2023-07-28T04:21:26;31.63;;;4.68;;
35715;SDS011;21840;44.920;8.616;2023-07-28T04:23:52;28.27;;;5.13;;
35715;SDS011;21840;44.920;8.616;2023-07-28T04:26:18;22.63;;;4.53;;
35715;SDS011;21840;44.920;8.616;2023-07-28T04:28:47;15.32;;;5.75;;
35715;SDS011;21840;44.920;8.616;2023-07-28T04:31:12;28.70;;;5.22;;
35715;SDS011;21840;44.920;8.616;2023-07-28T04:33:54;23.92;;;4.15;;
35715;SDS011;21840;44.920;8.616;2023-07-28T04:36:21;17.65;;;4.57;;
35715;SDS011;21840;44.920;8.616;2023-07-28T04:38:47;26.73;;;4.60;;
35715;SDS011;21840;44.920;8.616;2023-07-28T04:41:12;13.20;;;3.75;;
35715;SDS011;21840;44.920;8.616;2023-07-28T04:43:57;14.07;;;3.45;;
35715;SDS011;21840;44.920;8.616;2023-07-28T04:46:24;17.85;;;3.60;;
35715;SDS011;21840;44.920;8.616;2023-07-28T04:48:54;13.45;;;3.53;;
35715;SDS011;21840;44.920;8.616;2023-07-28T04:51:40;10.20;;;2.95;;
35715;SDS011;21840;44.920;8.616;2023-07-28T04:54:37;9.35;;;3.35;;
35715;SDS011;21840;44.920;8.616;2023-07-28T04:57:03;11.15;;;3.45;;
35715;SDS011;21840;44.920;8.616;2023-07-28T04:59:32;9.70;;;3.92;;
35715;SDS011;21840;44.920;8.616;2023-07-28T05:01:57;9.23;;;3.10;;
35715;SDS011;21840;44.920;8.616;2023-07-28T05:04:23;12.40;;;3.35;;
35715;SDS011;21840;44.920;8.616;2023-07-28T05:06:49;10.48;;;3.33;;
35715;SDS011;21840;44.920;8.616;2023-07-28T05:09:14;15.23;;;3.25;;
35715;SDS011;21840;44.920;8.616;2023-07-28T05:11:40;10.15;;;3.63;;
35715;SDS011;21840;44.920;8.616;2023-07-28T05:14:05;11.27;;;3.85;;
35715;SDS011;21840;44.920;8.616;2023-07-28T05:16:34;17.50;;;4.07;;
35715;SDS011;21840;44.920;8.616;2023-07-28T05:19:05;9.55;;;3.63;;
35715;SDS011;21840;44.920;8.616;2023-07-28T05:21:47;10.02;;;3.38;;
35715;SDS011;21840;44.920;8.616;2023-07-28T05:24:14;14.82;;;4.55;;
35715;SDS011;21840;44.920;8.616;2023-07-28T05:26:40;14.23;;;3.72;;
35715;SDS011;21840;44.920;8.616;2023-07-28T05:29:05;11.25;;;2.92;;
35715;SDS011;21840;44.920;8.616;2023-07-28T05:31:30;12.20;;;3.47;;
35715;SDS011;21840;44.920;8.616;2023-07-28T05:33:57;6.72;;;2.97;;
35715;SDS011;21840;44.920;8.616;2023-07-28T05:36:23;10.95;;;3.75;;
35715;SDS011;21840;44.920;8.616;2023-07-28T05:38:50;12.90;;;3.30;;
35715;SDS011;21840;44.920;8.616;2023-07-28T05:41:16;15.80;;;4.60;;
35715;SDS011;21840;44.920;8.616;2023-07-28T05:43:44;11.50;;;4.10;;
35715;SDS011;21840;44.920;8.616;2023-07-28T05:46:09;12.25;;;3.65;;
35715;SDS011;21840;44.920;8.616;2023-07-28T05:48:36;13.30;;;3.47;;
35715;SDS011;21840;44.920;8.616;2023-07-28T05:51:01;7.07;;;3.30;;
35715;SDS011;21840;44.920;8.616;2023-07-28T05:53:27;13.10;;;4.30;;
35715;SDS011;21840;44.920;8.616;2023-07-28T05:55:57;12.23;;;4.85;;
35715;SDS011;21840;44.920;8.616;2023-07-28T05:58:27;15.60;;;3.83;;
35715;SDS011;21840;44.920;8.616;2023-07-28T06:00:53;10.65;;;3.63;;
35715;SDS011;21840;44.920;8.616;2023-07-28T06:03:41;10.07;;;3.28;;
35715;SDS011;21840;44.920;8.616;2023-07-28T06:06:13;19.65;;;4.38;;
35715;SDS011;21840;44.920;8.616;2023-07-28T06:08:38;12.77;;;3.90;;
35715;SDS011;21840;44.920;8.616;2023-07-28T06:11:04;15.32;;;3.72;;
35715;SDS011;21840;44.920;8.616;2023-07-28T06:13:31;15.82;;;4.25;;
35715;SDS011;21840;44.920;8.616;2023-07-28T06:15:57;19.85;;;5.97;;
35715;SDS011;21840;44.920;8.616;2023-07-28T06:18:23;18.92;;;4.18;;
35715;SDS011;21840;44.920;8.616;2023-07-28T06:20:57;15.35;;;4.78;;
35715;SDS011;21840;44.920;8.616;2023-07-28T06:23:23;16.55;;;4.55;;
35715;SDS011;21840;44.920;8.616;2023-07-28T06:25:49;21.00;;;4.32;;
35715;SDS011;21840;44.920;8.616;2023-07-28T06:28:15;14.60;;;4.90;;
35715;SDS011;21840;44.920;8.616;2023-07-28T06:30:40;22.55;;;4.57;;
35715;SDS011;21840;44.920;8.616;2023-07-28T06:33:06;17.15;;;4.45;;
35715;SDS011;21840;44.920;8.616;2023-07-28T06:35:32;19.83;;;3.60;;
35715;SDS011;21840;44.920;8.616;2023-07-28T06:37:59;17.73;;;4.43;;
35715;SDS011;21840;44.920;8.616;2023-07-28T06:40:24;19.95;;;4.72;;
35715;SDS011;21840;44.920;8.616;2023-07-28T06:42:50;13.73;;;3.83;;
35715;SDS011;21840;44.920;8.616;2023-07-28T06:45:16;13.55;;;3.58;;
35715;SDS011;21840;44.920;8.616;2023-07-28T06:47:42;12.02;;;3.55;;
35715;SDS011;21840;44.920;8.616;2023-07-28T06:50:08;11.20;;;3.17;;
35715;SDS011;21840;44.920;8.616;2023-07-28T06:52:34;9.55;;;3.63;;
35715;SDS011;21840;44.920;8.616;2023-07-28T06:54:59;15.27;;;3.10;;
35715;SDS011;21840;44.920;8.616;2023-07-28T06:57:26;13.98;;;3.83;;
35715;SDS011;21840;44.920;8.616;2023-07-28T06:59:51;22.67;;;3.65;;
35715;SDS011;21840;44.920;8.616;2023-07-28T07:02:17;14.55;;;3.53;;
35715;SDS011;21840;44.920;8.616;2023-07-28T07:04:42;9.77;;;2.55;;
35715;SDS011;21840;44.920;8.616;2023-07-28T07:07:08;11.30;;;2.95;;
35715;SDS011;21840;44.920;8.616;2023-07-28T07:09:34;11.50;;;3.20;;
35715;SDS011;21840;44.920;8.616;2023-07-28T07:12:00;10.30;;;3.10;;
35715;SDS011;21840;44.920;8.616;2023-07-28T07:14:25;9.95;;;2.90;;
35715;SDS011;21840;44.920;8.616;2023-07-28T07:16:50;15.23;;;3.47;;
35715;SDS011;21840;44.920;8.616;2023-07-28T07:19:16;7.50;;;3.15;;
35715;SDS011;21840;44.920;8.616;2023-07-28T07:21:41;16.38;;;3.00;;
35715;SDS011;21840;44.920;8.616;2023-07-28T07:24:09;15.45;;;3.67;;
35715;SDS011;21840;44.920;8.616;2023-07-28T07:26:35;9.25;;;2.72;;
35715;SDS011;21840;44.920;8.616;2023-07-28T07:29:00;10.73;;;2.85;;
35715;SDS011;21840;44.920;8.616;2023-07-28T07:31:26;13.82;;;3.00;;
35715;SDS011;21840;44.920;8.616;2023-07-28T07:33:51;10.65;;;2.92;;
35715;SDS011;21840;44.920;8.616;2023-07-28T07:36:18;9.77;;;3.15;;
35715;SDS011;21840;44.920;8.616;2023-07-28T07:38:44;10.55;;;2.88;;
35715;SDS011;21840;44.920;8.616;2023-07-28T07:41:14;19.30;;;3.33;;
35715;SDS011;21840;44.920;8.616;2023-07-28T07:43:47;12.32;;;3.45;;
35715;SDS011;21840;44.920;8.616;2023-07-28T07:46:14;10.85;;;2.75;;
35715;SDS011;21840;44.920;8.616;2023-07-28T07:48:40;11.07;;;3.38;;
35715;SDS011;21840;44.920;8.616;2023-07-28T07:51:06;12.35;;;2.85;;
35715;SDS011;21840;44.920;8.616;2023-07-28T07:53:32;9.70;;;3.33;;
35715;SDS011;21840;44.920;8.616;2023-07-28T07:55:58;13.50;;;2.75;;
35715;SDS011;21840;44.920;8.616;2023-07-28T07:58:23;9.63;;;3.20;;
35715;SDS011;21840;44.920;8.616;2023-07-28T08:00:49;9.30;;;2.83;;
35715;SDS011;21840;44.920;8.616;2023-07-28T08:03:14;7.03;;;2.60;;
35715;SDS011;21840;44.920;8.616;2023-07-28T08:05:40;11.52;;;2.80;;
35715;SDS011;21840;44.920;8.616;2023-07-28T08:08:05;15.93;;;3.40;;
35715;SDS011;21840;44.920;8.616;2023-07-28T08:10:32;10.43;;;3.08;;
35715;SDS011;21840;44.920;8.616;2023-07-28T08:12:58;10.65;;;2.90;;
35715;SDS011;21840;44.920;8.616;2023-07-28T08:15:24;9.48;;;3.03;;
35715;SDS011;21840;44.920;8.616;2023-07-28T08:17:50;11.93;;;3.03;;
35715;SDS011;21840;44.920;8.616;2023-07-28T08:20:16;8.15;;;3.00;;
35715;SDS011;21840;44.920;8.616;2023-07-28T08:22:41;7.95;;;2.63;;
35715;SDS011;21840;44.920;8.616;2023-07-28T08:25:07;10.63;;;2.65;;
35715;SDS011;21840;44.920;8.616;2023-07-28T08:27:33;14.38;;;3.25;;
35715;SDS011;21840;44.920;8.616;2023-07-28T08:29:58;10.63;;;2.90;;
35715;SDS011;21840;44.920;8.616;2023-07-28T08:32:24;8.23;;;3.22;;
35715;SDS011;21840;44.920;8.616;2023-07-28T08:34:49;7.95;;;2.88;;
35715;SDS011;21840;44.920;8.616;2023-07-28T08:37:15;15.80;;;2.83;;
35715;SDS011;21840;44.920;8.616;2023-07-28T08:39:40;7.90;;;2.60;;
35715;SDS011;21840;44.920;8.616;2023-07-28T08:42:06;11.63;;;3.40;;
35715;SDS011;21840;44.920;8.616;2023-07-28T08:44:32;11.65;;;3.20;;
35715;SDS011;21840;44.920;8.616;2023-07-28T08:47:02;14.43;;;3.13;;
35715;SDS011;21840;44.920;8.616;2023-07-28T08:49:32;13.48;;;3.17;;
35715;SDS011;21840;44.920;8.616;2023-07-28T08:52:02;11.70;;;3.00;;
35715;SDS011;21840;44.920;8.616;2023-07-28T08:54:31;9.20;;;2.78;;
35715;SDS011;21840;44.920;8.616;2023-07-28T08:56:59;9.43;;;2.92;;
35715;SDS011;21840;44.920;8.616;2023-07-28T08:59:25;11.68;;;3.20;;
35715;SDS011;21840;44.920;8.616;2023-07-28T09:01:53;12.60;;;2.88;;
35715;SDS011;21840;44.920;8.616;2023-07-28T09:04:20;7.22;;;2.58;;
35715;SDS011;21840;44.920;8.616;2023-07-28T09:06:48;6.93;;;2.80;;
35715;SDS011;21840;44.920;8.616;2023-07-28T09:09:14;10.23;;;3.28;;
35715;SDS011;21840;44.920;8.616;2023-07-28T09:11:44;9.35;;;3.50;;
35715;SDS011;21840;44.920;8.616;2023-07-28T09:14:11;13.45;;;3.00;;
35715;SDS011;21840;44.920;8.616;2023-07-28T09:16:38;12.25;;;3.17;;
35715;SDS011;21840;44.920;8.616;2023-07-28T09:19:04;8.93;;;2.70;;
35715;SDS011;21840;44.920;8.616;2023-07-28T09:21:32;9.98;;;3.25;;
35715;SDS011;21840;44.920;8.616;2023-07-28T09:24:01;7.15;;;3.00;;
35715;SDS011;21840;44.920;8.616;2023-07-28T09:26:42;12.38;;;4.47;;
35715;SDS011;21840;44.920;8.616;2023-07-28T09:31:40;7.68;;;2.67;;
35715;SDS011;21840;44.920;8.616;2023-07-28T09:34:09;12.65;;;3.17;;
35715;SDS011;21840;44.920;8.616;2023-07-28T09:36:35;13.52;;;3.35;;
35715;SDS011;21840;44.920;8.616;2023-07-28T09:39:06;8.57;;;2.90;;
35715;SDS011;21840;44.920;8.616;2023-07-28T09:41:36;10.73;;;3.22;;
35715;SDS011;21840;44.920;8.616;2023-07-28T09:44:04;9.38;;;3.28;;
35715;SDS011;21840;44.920;8.616;2023-07-28T09:46:33;9.82;;;3.10;;
35715;SDS011;21840;44.920;8.616;2023-07-28T09:49:04;12.25;;;3.00;;
35715;SDS011;21840;44.920;8.616;2023-07-28T09:51:32;7.38;;;3.22;;
35715;SDS011;21840;44.920;8.616;2023-07-28T09:54:04;7.82;;;3.20;;
35715;SDS011;21840;44.920;8.616;2023-07-28T09:56:31;15.60;;;3.55;;
35715;SDS011;21840;44.920;8.616;2023-07-28T09:58:58;14.55;;;3.50;;
35715;SDS011;21840;44.920;8.616;2023-07-28T10:01:26;9.38;;;3.03;;
35715;SDS011;21840;44.920;8.616;2023-07-28T10:03:53;13.10;;;3.08;;
35715;SDS011;21840;44.920;8.616;2023-07-28T10:06:19;12.98;;;3.00;;
35715;SDS011;21840;44.920;8.616;2023-07-28T10:08:47;7.38;;;2.70;;
35715;SDS011;21840;44.920;8.616;2023-07-28T10:11:14;11.93;;;2.70;;
35715;SDS011;21840;44.920;8.616;2023-07-28T10:13:43;8.32;;;3.28;;
35715;SDS011;21840;44.920;8.616;2023-07-28T10:16:11;9.65;;;2.72;;
35715;SDS011;21840;44.920;8.616;2023-07-28T10:18:39;7.53;;;2.47;;
35715;SDS011;21840;44.920;8.616;2023-07-28T10:21:09;7.75;;;2.70;;
35715;SDS011;21840;44.920;8.616;2023-07-28T10:23:40;9.55;;;2.80;;
35715;SDS011;21840;44.920;8.616;2023-07-28T10:26:06;7.72;;;3.10;;
35715;SDS011;21840;44.920;8.616;2023-07-28T10:28:33;6.15;;;2.97;;
35715;SDS011;21840;44.920;8.616;2023-07-28T10:31:04;7.72;;;2.80;;
35715;SDS011;21840;44.920;8.616;2023-07-28T10:39:00;6.78;;;2.65;;
35715;SDS011;21840;44.920;8.616;2023-07-28T10:41:29;7.97;;;2.40;;
35715;SDS011;21840;44.920;8.616;2023-07-28T10:43:56;7.30;;;2.50;;
35715;SDS011;21840;44.920;8.616;2023-07-28T10:46:21;13.20;;;2.97;;
35715;SDS011;21840;44.920;8.616;2023-07-28T10:48:50;12.82;;;4.47;;
35715;SDS011;21840;44.920;8.616;2023-07-28T10:51:20;8.85;;;2.95;;
35715;SDS011;21840;44.920;8.616;2023-07-28T10:53:51;8.18;;;2.58;;
35715;SDS011;21840;44.920;8.616;2023-07-28T10:56:17;11.95;;;3.10;;
35715;SDS011;21840;44.920;8.616;2023-07-28T10:58:43;10.23;;;3.00;;
35715;SDS011;21840;44.920;8.616;2023-07-28T11:01:09;8.93;;;3.13;;
35715;SDS011;21840;44.920;8.616;2023-07-28T11:03:34;9.93;;;3.55;;
35715;SDS011;21840;44.920;8.616;2023-07-28T11:06:00;8.75;;;2.90;;
35715;SDS011;21840;44.920;8.616;2023-07-28T11:08:25;4.68;;;2.40;;
35715;SDS011;21840;44.920;8.616;2023-07-28T11:10:51;5.88;;;2.45;;
35715;SDS011;21840;44.920;8.616;2023-07-28T11:13:17;9.00;;;2.95;;
35715;SDS011;21840;44.920;8.616;2023-07-28T11:15:42;10.05;;;2.92;;
35715;SDS011;21840;44.920;8.616;2023-07-28T11:18:10;8.30;;;2.97;;
35715;SDS011;21840;44.920;8.616;2023-07-28T11:20:36;10.60;;;2.67;;
35715;SDS011;21840;44.920;8.616;2023-07-28T11:23:02;9.85;;;2.20;;
35715;SDS011;21840;44.920;8.616;2023-07-28T11:25:30;6.60;;;2.95;;
35715;SDS011;21840;44.920;8.616;2023-07-28T11:27:56;6.05;;;2.63;;
35715;SDS011;21840;44.920;8.616;2023-07-28T11:30:22;10.73;;;2.90;;
35715;SDS011;21840;44.920;8.616;2023-07-28T11:32:52;8.52;;;2.50;;
35715;SDS011;21840;44.920;8.616;2023-07-28T11:35:19;13.57;;;3.35;;
35715;SDS011;21840;44.920;8.616;2023-07-28T11:37:46;7.10;;;2.65;;
35715;SDS011;21840;44.920;8.616;2023-07-28T11:40:16;9.57;;;2.38;;
35715;SDS011;21840;44.920;8.616;2023-07-28T11:42:45;7.22;;;2.45;;
35715;SDS011;21840;44.920;8.616;2023-07-28T11:45:18;6.38;;;2.28;;
35715;SDS011;21840;44.920;8.616;2023-07-28T11:50:39;17.40;;;4.15;;
35715;SDS011;21840;44.920;8.616;2023-07-28T11:53:07;7.40;;;2.88;;
35715;SDS011;21840;44.920;8.616;2023-07-28T11:55:35;6.00;;;2.28;;
35715;SDS011;21840;44.920;8.616;2023-07-28T11:58:01;7.78;;;2.70;;
35715;SDS011;21840;44.920;8.616;2023-07-28T12:00:36;7.32;;;2.97;;
35715;SDS011;21840;44.920;8.616;2023-07-28T12:03:06;6.70;;;2.63;;
35715;SDS011;21840;44.920;8.616;2023-07-28T12:05:37;10.93;;;3.17;;
35715;SDS011;21840;44.920;8.616;2023-07-28T12:08:04;6.18;;;3.05;;
35715;SDS011;21840;44.920;8.616;2023-07-28T12:10:29;8.13;;;2.92;;
35715;SDS011;21840;44.920;8.616;2023-07-28T12:12:57;9.32;;;3.10;;
35715;SDS011;21840;44.920;8.616;2023-07-28T12:15:24;9.18;;;2.63;;
35715;SDS011;21840;44.920;8.616;2023-07-28T12:18:12;4.35;;;2.40;;
35715;SDS011;21840;44.920;8.616;2023-07-28T12:20:40;9.15;;;2.80;;
35715;SDS011;21840;44.920;8.616;2023-07-28T12:23:07;7.00;;;2.83;;
35715;SDS011;21840;44.920;8.616;2023-07-28T12:25:34;5.80;;;2.50;;
35715;SDS011;21840;44.920;8.616;2023-07-28T12:28:01;8.15;;;2.80;;
35715;SDS011;21840;44.920;8.616;2023-07-28T12:30:27;7.45;;;2.50;;
35715;SDS011;21840;44.920;8.616;2023-07-28T12:32:53;8.00;;;2.70;;
35715;SDS011;21840;44.920;8.616;2023-07-28T12:35:18;5.90;;;2.65;;
35715;SDS011;21840;44.920;8.616;2023-07-28T12:37:44;10.00;;;2.83;;
35715;SDS011;21840;44.920;8.616;2023-07-28T12:40:10;6.93;;;2.65;;
35715;SDS011;21840;44.920;8.616;2023-07-28T12:42:36;7.45;;;2.50;;
35715;SDS011;21840;44.920;8.616;2023-07-28T12:45:01;11.40;;;2.95;;
35715;SDS011;21840;44.920;8.616;2023-07-28T12:47:27;4.18;;;2.53;;
35715;SDS011;21840;44.920;8.616;2023-07-28T12:49:52;6.05;;;2.70;;
35715;SDS011;21840;44.920;8.616;2023-07-28T12:52:18;6.93;;;2.13;;
35715;SDS011;21840;44.920;8.616;2023-07-28T12:54:45;6.13;;;2.40;;
35715;SDS011;21840;44.920;8.616;2023-07-28T12:57:13;9.70;;;2.83;;
35715;SDS011;21840;44.920;8.616;2023-07-28T12:59:39;6.95;;;2.13;;
35715;SDS011;21840;44.920;8.616;2023-07-28T13:02:04;4.60;;;2.00;;
35715;SDS011;21840;44.920;8.616;2023-07-28T13:04:30;7.72;;;2.90;;
35715;SDS011;21840;44.920;8.616;2023-07-28T13:06:56;15.30;;;4.07;;
35715;SDS011;21840;44.920;8.616;2023-07-28T13:09:21;9.40;;;2.90;;
35715;SDS011;21840;44.920;8.616;2023-07-28T13:11:47;6.25;;;2.53;;
35715;SDS011;21840;44.920;8.616;2023-07-28T13:14:12;4.60;;;2.53;;
35715;SDS011;21840;44.920;8.616;2023-07-28T13:16:38;6.82;;;2.80;;
35715;SDS011;21840;44.920;8.616;2023-07-28T13:19:04;6.00;;;2.58;;
35715;SDS011;21840;44.920;8.616;2023-07-28T13:21:30;7.45;;;2.78;;
35715;SDS011;21840;44.920;8.616;2023-07-28T13:23:56;6.40;;;2.40;;
35715;SDS011;21840;44.920;8.616;2023-07-28T13:26:21;6.20;;;2.40;;
35715;SDS011;21840;44.920;8.616;2023-07-28T13:28:47;9.75;;;2.70;;
35715;SDS011;21840;44.920;8.616;2023-07-28T13:31:16;6.88;;;2.47;;
35715;SDS011;21840;44.920;8.616;2023-07-28T13:33:42;7.45;;;2.55;;
35715;SDS011;21840;44.920;8.616;2023-07-28T13:36:08;8.20;;;2.40;;
35715;SDS011;21840;44.920;8.616;2023-07-28T13:38:34;5.95;;;2.35;;
35715;SDS011;21840;44.920;8.616;2023-07-28T13:41:00;12.50;;;3.13;;
35715;SDS011;21840;44.920;8.616;2023-07-28T13:43:25;4.78;;;2.65;;
35715;SDS011;21840;44.920;8.616;2023-07-28T13:45:51;5.05;;;2.50;;
35715;SDS011;21840;44.920;8.616;2023-07-28T13:48:17;13.50;;;3.00;;
35715;SDS011;21840;44.920;8.616;2023-07-28T13:50:42;10.73;;;2.50;;
35715;SDS011;21840;44.920;8.616;2023-07-28T13:53:08;12.65;;;3.03;;
35715;SDS011;21840;44.920;8.616;2023-07-28T13:55:33;7.88;;;2.75;;
35715;SDS011;21840;44.920;8.616;2023-07-28T13:57:59;3.97;;;2.40;;
35715;SDS011;21840;44.920;8.616;2023-07-28T14:00:25;6.30;;;2.40;;
35715;SDS011;21840;44.920;8.616;2023-07-28T14:02:50;8.20;;;2.83;;
35715;SDS011;21840;44.920;8.616;2023-07-28T14:05:15;7.25;;;2.75;;
35715;SDS011;21840;44.920;8.616;2023-07-28T14:07:41;6.28;;;2.45;;
35715;SDS011;21840;44.920;8.616;2023-07-28T14:10:06;7.05;;;2.45;;
35715;SDS011;21840;44.920;8.616;2023-07-28T14:12:32;6.80;;;2.65;;
35715;SDS011;21840;44.920;8.616;2023-07-28T14:14:57;7.30;;;2.53;;
35715;SDS011;21840;44.920;8.616;2023-07-28T14:17:23;7.43;;;3.03;;
35715;SDS011;21840;44.920;8.616;2023-07-28T14:19:48;7.25;;;2.63;;
35715;SDS011;21840;44.920;8.616;2023-07-28T14:22:14;8.95;;;2.47;;
35715;SDS011;21840;44.920;8.616;2023-07-28T14:24:39;6.43;;;2.60;;
35715;SDS011;21840;44.920;8.616;2023-07-28T14:27:05;4.63;;;2.33;;
35715;SDS011;21840;44.920;8.616;2023-07-28T14:29:32;4.65;;;2.65;;
35715;SDS011;21840;44.920;8.616;2023-07-28T14:31:57;5.78;;;2.83;;
35715;SDS011;21840;44.920;8.616;2023-07-28T14:34:23;4.47;;;2.58;;
35715;SDS011;21840;44.920;8.616;2023-07-28T14:36:48;7.05;;;2.65;;
35715;SDS011;21840;44.920;8.616;2023-07-28T14:39:13;8.38;;;2.50;;
35715;SDS011;21840;44.920;8.616;2023-07-28T14:41:39;9.88;;;2.38;;
35715;SDS011;21840;44.920;8.616;2023-07-28T14:44:04;20.42;;;2.75;;
35715;SDS011;21840;44.920;8.616;2023-07-28T14:46:30;11.65;;;2.67;;
35715;SDS011;21840;44.920;8.616;2023-07-28T14:48:55;12.88;;;3.00;;
35715;SDS011;21840;44.920;8.616;2023-07-28T14:51:21;13.25;;;3.38;;
35715;SDS011;21840;44.920;8.616;2023-07-28T14:53:47;9.23;;;3.30;;
35715;SDS011;21840;44.920;8.616;2023-07-28T14:56:13;15.45;;;3.33;;